Terminal Aerodrome Forecast
Issued by NWS Sterling, VA

Current Version | Previous Version | Text Only | Print | Product List | Glossary Off
Versions: 1 2 3 4 5 6 7 8 9 10 11 12 13 14 15 16 17 18 19 20 21 22 23 24 25 26

000
FTUS41 KLWX 312100 AAB
TAFIAD
TAF AMD
KIAD 312128Z 3121/0124 22009KT P6SM VCTS OVC040CB
      TEMPO 3122/3123 25020G40KT 1SM -TSRA
     FM010400 19004KT P6SM VCTS OVC050CB
     FM010600 VRB03KT P6SM OVC050
     FM011300 22007KT P6SM BKN040
     FM012000 26007KT P6SM SCT040=

USA.gov is the U.S. government's official web portal to all federal, state and local government web resources and services.